createdAt,value
2018-10-19T00:02:20.564Z,66.34
2018-10-19T00:04:49.150Z,66.25
2018-10-19T00:07:17.834Z,66.11
2018-10-19T00:09:46.526Z,67.04
2018-10-19T00:12:15.132Z,67.17
2018-10-19T00:14:43.816Z,66.78
2018-10-19T00:17:12.503Z,67.16
2018-10-19T00:19:41.103Z,67.48
2018-10-19T00:22:09.704Z,67.05
2018-10-19T00:24:38.551Z,67.50
2018-10-19T00:27:07.270Z,67.83
2018-10-19T00:29:35.864Z,68.31
2018-10-19T00:32:04.533Z,68.38
2018-10-19T00:34:33.064Z,68.30
2018-10-19T00:37:01.630Z,68.71
2018-10-19T00:39:30.312Z,68.87
2018-10-19T00:41:58.894Z,68.99
2018-10-19T00:44:27.564Z,68.85
2018-10-19T00:46:56.477Z,69.14
2018-10-19T00:49:25.002Z,69.42
2018-10-19T00:51:53.745Z,69.18
2018-10-19T00:54:22.262Z,69.48
2018-10-19T00:56:50.891Z,70.06
2018-10-19T00:59:19.430Z,69.84
2018-10-19T01:01:48.137Z,69.74
2018-10-19T01:04:16.728Z,70.11
2018-10-19T01:06:45.332Z,70.07
2018-10-19T01:09:13.875Z,69.88
2018-10-19T01:11:45.213Z,70.05
2018-10-19T01:14:13.795Z,70.16
2018-10-19T01:16:42.392Z,70.39
2018-10-19T01:19:10.950Z,70.32
2018-10-19T01:21:39.572Z,70.50
2018-10-19T01:24:08.106Z,70.83
2018-10-19T01:26:36.779Z,70.69
2018-10-19T01:29:05.653Z,70.59
2018-10-19T01:31:34.471Z,70.66
2018-10-19T01:34:03.588Z,70.81
2018-10-19T01:36:37.476Z,71.03
2018-10-19T01:39:07.513Z,70.73
2018-10-19T01:41:35.914Z,71.04
2018-10-19T01:44:04.721Z,71.29
2018-10-19T01:46:33.319Z,71.04
2018-10-19T01:49:01.918Z,71.18
2018-10-19T01:51:31.160Z,71.19
2018-10-19T01:53:59.715Z,71.17
2018-10-19T01:56:28.235Z,71.33
2018-10-19T01:58:56.956Z,71.07
2018-10-19T02:01:25.530Z,71.20
2018-10-19T02:03:54.055Z,71.23
2018-10-19T02:06:22.612Z,70.88
2018-10-19T02:08:51.162Z,71.32
2018-10-19T02:11:19.852Z,71.12
2018-10-19T02:13:48.633Z,71.33
2018-10-19T02:16:17.424Z,71.53
2018-10-19T02:18:46.028Z,71.31
2018-10-19T02:21:14.699Z,71.73
2018-10-19T02:23:43.199Z,71.78
2018-10-19T02:26:11.853Z,71.76
2018-10-19T02:28:40.414Z,71.81
2018-10-19T02:31:09.049Z,71.64
2018-10-19T02:33:45.589Z,72.04
2018-10-19T02:36:14.783Z,72.11
2018-10-19T02:38:44.535Z,71.90
2018-10-19T02:41:14.649Z,72.01
2018-10-19T02:43:43.258Z,72.01
2018-10-19T02:46:11.849Z,72.37
2018-10-19T02:48:40.556Z,72.86
2018-10-19T02:51:15.778Z,73.14
2018-10-19T02:53:44.277Z,73.53
2018-10-19T02:56:12.869Z,73.59
2018-10-19T02:58:41.521Z,73.42
2018-10-19T03:01:10.057Z,73.71
2018-10-19T03:03:38.619Z,73.45
2018-10-19T03:06:07.580Z,73.93
2018-10-19T03:08:36.370Z,73.94
2018-10-19T03:11:05.293Z,73.38
2018-10-19T03:13:34.064Z,73.72
2018-10-19T03:16:05.574Z,73.69
2018-10-19T03:18:34.166Z,73.68
2018-10-19T03:21:03.554Z,73.84
2018-10-19T03:23:32.114Z,73.79
2018-10-19T03:26:00.836Z,73.87
2018-10-19T03:28:29.487Z,74.21
2018-10-19T03:30:58.041Z,73.97
2018-10-19T03:33:26.650Z,74.23
2018-10-19T03:35:55.209Z,74.36
2018-10-19T03:38:23.815Z,74.14
2018-10-19T03:40:52.377Z,74.48
2018-10-19T03:43:20.953Z,74.48
2018-10-19T03:45:49.635Z,74.26
2018-10-19T03:48:18.173Z,74.25
2018-10-19T03:50:46.821Z,73.80
2018-10-19T03:53:15.412Z,74.32
2018-10-19T03:55:43.972Z,74.21
2018-10-19T03:58:12.539Z,74.18
2018-10-19T04:00:41.147Z,74.47
2018-10-19T04:03:09.791Z,74.34
2018-10-19T04:05:38.262Z,74.29
2018-10-19T04:08:06.929Z,74.09
2018-10-19T04:10:35.505Z,74.41
2018-10-19T04:13:04.192Z,74.25
2018-10-19T04:15:32.798Z,74.42
2018-10-19T04:18:01.748Z,74.20
2018-10-19T04:20:30.338Z,73.92
2018-10-19T04:23:03.358Z,74.30
2018-10-19T04:25:31.818Z,74.52
2018-10-19T04:28:00.569Z,74.44
2018-10-19T04:30:29.092Z,74.42
2018-10-19T04:32:57.742Z,74.13
2018-10-19T04:35:26.364Z,74.79
2018-10-19T04:37:54.886Z,74.39
2018-10-19T04:40:24.186Z,74.58
2018-10-19T04:42:52.786Z,74.69
2018-10-19T04:45:21.399Z,74.22
2018-10-19T04:47:50.174Z,74.08
2018-10-19T04:50:18.623Z,74.41
2018-10-19T04:52:47.181Z,74.94
2018-10-19T04:55:19.336Z,74.83
2018-10-19T04:57:47.991Z,74.57
2018-10-19T05:00:23.416Z,74.27
2018-10-19T05:02:52.764Z,74.25
2018-10-19T05:05:21.647Z,74.09
2018-10-19T05:07:50.335Z,74.20
2018-10-19T05:10:19.306Z,74.41
2018-10-19T05:12:47.957Z,74.31
2018-10-19T05:15:16.651Z,74.55
2018-10-19T05:17:45.315Z,74.19
2018-10-19T05:20:14.178Z,74.46
2018-10-19T05:22:42.737Z,74.39
2018-10-19T05:25:12.850Z,74.26
2018-10-19T05:27:41.661Z,74.14
2018-10-19T05:30:12.275Z,74.18
2018-10-19T05:32:41.827Z,74.73
2018-10-19T05:35:10.922Z,74.86
2018-10-19T05:37:40.486Z,74.46
2018-10-19T05:40:10.772Z,74.78
2018-10-19T05:42:39.906Z,74.56
2018-10-19T05:45:10.275Z,74.41
2018-10-19T05:47:38.960Z,74.67
2018-10-19T05:50:08.941Z,74.07
2018-10-19T05:52:38.122Z,74.28
2018-10-19T05:55:07.072Z,74.20
2018-10-19T05:57:35.972Z,74.33
2018-10-19T06:00:05.103Z,74.39
2018-10-19T06:02:33.930Z,74.26
2018-10-19T06:05:03.269Z,74.50
2018-10-19T06:07:31.961Z,74.30
2018-10-19T06:10:00.603Z,74.34
2018-10-19T06:12:29.273Z,74.17
2018-10-19T06:14:57.920Z,73.91
2018-10-19T06:17:26.635Z,74.01
2018-10-19T06:19:55.372Z,73.70
2018-10-19T06:22:24.061Z,73.87
2018-10-19T06:24:52.670Z,73.83
2018-10-19T06:27:21.271Z,73.70
2018-10-19T06:29:49.996Z,73.49
2018-10-19T06:32:18.715Z,73.29
2018-10-19T06:34:47.212Z,73.28
2018-10-19T06:37:16.202Z,73.31
2018-10-19T06:39:44.900Z,73.60
2018-10-19T06:42:13.505Z,73.42
2018-10-19T06:44:42.185Z,73.58
2018-10-19T06:47:11.028Z,74.16
2018-10-19T06:49:39.558Z,74.01
2018-10-19T06:52:08.204Z,74.37
2018-10-19T06:54:36.863Z,74.46
2018-10-19T06:57:05.784Z,74.00
2018-10-19T06:59:34.772Z,73.86
2018-10-19T07:02:04.375Z,74.09
2018-10-19T07:04:32.957Z,74.23
2018-10-19T07:07:02.693Z,74.13
2018-10-19T07:09:31.368Z,74.08
2018-10-19T07:12:00.137Z,74.15
2018-10-19T07:14:28.855Z,73.91
2018-10-19T07:16:57.535Z,73.94
2018-10-19T07:19:26.218Z,74.14
2018-10-19T07:21:54.842Z,74.00
2018-10-19T07:24:23.535Z,73.51
2018-10-19T07:26:52.499Z,73.57
2018-10-19T07:29:21.279Z,73.52
2018-10-19T07:31:50.388Z,73.33
2018-10-19T07:34:19.508Z,73.32
2018-10-19T07:36:48.377Z,73.04
2018-10-19T07:39:17.079Z,73.15
2018-10-19T07:41:45.710Z,72.61
2018-10-19T07:44:14.481Z,72.47
2018-10-19T07:46:43.365Z,72.76
2018-10-19T07:49:12.333Z,72.64
2018-10-19T07:51:42.782Z,72.79
2018-10-19T07:54:11.550Z,72.36
2018-10-19T07:56:43.415Z,72.36
2018-10-19T07:59:12.704Z,72.65
2018-10-19T08:01:42.016Z,72.57
2018-10-19T08:04:10.827Z,72.53
2018-10-19T08:06:39.772Z,72.67
2018-10-19T08:09:10.252Z,72.43
2018-10-19T08:11:39.564Z,72.34
2018-10-19T08:14:08.238Z,72.39
2018-10-19T08:16:36.959Z,72.16
2018-10-19T08:19:05.594Z,72.25
2018-10-19T08:21:34.188Z,72.19
2018-10-19T08:24:04.065Z,72.43
2018-10-19T08:26:33.423Z,72.07
2018-10-19T08:29:02.822Z,72.06
2018-10-19T08:31:31.744Z,71.78
2018-10-19T08:34:00.415Z,71.25
2018-10-19T08:36:29.057Z,71.68
2018-10-19T08:38:57.893Z,71.57
2018-10-19T08:41:26.607Z,70.92
2018-10-19T08:43:55.262Z,70.92
2018-10-19T08:46:29.370Z,70.41
2018-10-19T08:48:58.279Z,70.66
2018-10-19T08:51:26.847Z,70.18
2018-10-19T08:53:55.658Z,69.91
2018-10-19T08:56:24.325Z,69.86
2018-10-19T08:58:53.247Z,69.77
2018-10-19T09:01:22.025Z,69.59
2018-10-19T09:03:51.057Z,69.28
2018-10-19T09:06:19.740Z,68.84
2018-10-19T09:08:48.417Z,69.13
2018-10-19T09:11:18.125Z,68.83
2018-10-19T09:13:46.790Z,68.47
2018-10-19T09:16:15.444Z,68.28
2018-10-19T09:18:44.169Z,68.08
2018-10-19T09:21:13.069Z,67.76
2018-10-19T09:23:41.743Z,67.62
2018-10-19T09:26:10.883Z,67.78
2018-10-19T09:28:39.728Z,67.29
2018-10-19T09:31:08.426Z,66.87
2018-10-19T09:33:38.449Z,66.27
2018-10-19T09:36:07.195Z,65.52
2018-10-19T09:38:35.877Z,65.43
2018-10-19T09:41:05.313Z,64.82
2018-10-19T09:43:34.801Z,65.03
2018-10-19T09:46:04.407Z,64.39
2018-10-19T09:48:33.062Z,64.90
2018-10-19T09:51:02.960Z,63.89
2018-10-19T09:53:31.814Z,64.05
2018-10-19T09:56:00.698Z,63.84
2018-10-19T09:58:30.340Z,64.91
2018-10-19T10:00:59.093Z,63.75
2018-10-19T10:03:28.369Z,63.27
2018-10-19T10:05:57.016Z,63.15
2018-10-19T10:08:25.862Z,62.50
2018-10-19T10:10:54.862Z,62.79
2018-10-19T10:13:25.115Z,62.58
2018-10-19T10:15:54.904Z,61.85
2018-10-19T10:18:23.635Z,61.92
2018-10-19T10:20:52.878Z,61.83
2018-10-19T10:23:22.090Z,61.26
2018-10-19T10:25:51.842Z,60.55
2018-10-19T10:28:20.507Z,60.80
2018-10-19T10:30:49.254Z,60.30
2018-10-19T10:33:18.067Z,59.98
2018-10-19T10:35:46.794Z,59.90
2018-10-19T10:38:15.436Z,58.84
2018-10-19T10:40:44.157Z,58.48
2018-10-19T10:43:13.072Z,58.46
2018-10-19T10:45:42.763Z,57.51
2018-10-19T10:48:12.232Z,58.00
2018-10-19T10:50:40.910Z,57.29
2018-10-19T10:53:09.664Z,58.10
2018-10-19T10:55:38.587Z,57.20
2018-10-19T10:58:07.639Z,56.99
2018-10-19T11:00:36.355Z,58.07
2018-10-19T11:03:05.095Z,56.79
2018-10-19T11:05:33.962Z,56.56
2018-10-19T11:08:03.555Z,57.41
2018-10-19T11:10:32.353Z,56.76
2018-10-19T11:13:01.358Z,57.13
2018-10-19T11:15:30.281Z,55.75
2018-10-19T11:17:59.230Z,54.34
2018-10-19T11:20:28.027Z,54.81
2018-10-19T11:22:56.678Z,54.49
2018-10-19T11:25:26.395Z,54.91
2018-10-19T11:27:55.161Z,54.79
2018-10-19T11:30:23.820Z,54.07
2018-10-19T11:32:52.766Z,53.74
2018-10-19T11:35:21.494Z,54.96
2018-10-19T11:37:50.251Z,54.01
2018-10-19T11:40:26.973Z,53.68
2018-10-19T11:42:56.991Z,54.09
2018-10-19T11:45:27.729Z,53.17
2018-10-19T11:47:56.661Z,52.97
2018-10-19T11:50:25.302Z,52.35
2018-10-19T11:52:53.879Z,52.74
2018-10-19T11:55:22.624Z,52.46
2018-10-19T11:57:52.443Z,52.65
2018-10-19T12:00:21.129Z,51.57
2018-10-19T12:02:49.956Z,51.74
2018-10-19T12:05:18.555Z,51.72
2018-10-19T12:07:47.336Z,51.74
2018-10-19T12:10:16.398Z,51.03
2018-10-19T12:12:45.842Z,51.43
2018-10-19T12:15:16.151Z,51.77
2018-10-19T12:17:45.482Z,51.76
2018-10-19T12:20:16.017Z,50.85
2018-10-19T12:22:44.712Z,50.98
2018-10-19T12:25:14.298Z,50.98
2018-10-19T12:27:42.999Z,51.24
2018-10-19T12:30:13.821Z,48.65
2018-10-19T12:32:43.469Z,48.97
2018-10-19T12:35:13.548Z,49.43
2018-10-19T12:37:42.202Z,48.84
2018-10-19T12:40:12.004Z,48.66
2018-10-19T12:42:40.764Z,49.49
2018-10-19T12:45:20.758Z,48.66
2018-10-19T12:47:49.385Z,47.98
2018-10-19T12:50:18.939Z,48.17
2018-10-19T12:52:48.083Z,47.99
2018-10-19T12:55:16.805Z,47.76
2018-10-19T12:57:45.494Z,48.56
2018-10-19T13:00:17.497Z,49.22
2018-10-19T13:02:47.782Z,49.63
2018-10-19T13:05:16.616Z,49.10
2018-10-19T13:07:45.209Z,49.21
2018-10-19T13:10:13.893Z,50.27
2018-10-19T13:12:42.492Z,49.71
2018-10-19T13:15:11.156Z,50.49
2018-10-19T13:17:40.001Z,52.06
2018-10-19T13:20:08.701Z,51.39
2018-10-19T13:22:37.326Z,51.64
2018-10-19T13:25:06.026Z,51.36
2018-10-19T13:27:34.741Z,52.07
2018-10-19T13:30:03.711Z,51.60
2018-10-19T13:32:32.644Z,51.72
2018-10-19T13:35:01.615Z,52.07
2018-10-19T13:37:30.438Z,52.64
2018-10-19T13:39:59.200Z,52.50
2018-10-19T13:42:27.845Z,52.88
2018-10-19T13:44:56.381Z,52.17
2018-10-19T13:47:24.985Z,53.30
2018-10-19T13:49:53.872Z,53.52
2018-10-19T13:52:22.613Z,54.28
2018-10-19T13:54:51.393Z,53.49
2018-10-19T13:57:20.084Z,55.43
2018-10-19T13:59:48.828Z,53.95
2018-10-19T14:02:18.140Z,54.31
2018-10-19T14:04:46.748Z,54.01
2018-10-19T14:07:15.570Z,53.69
2018-10-19T14:09:44.196Z,54.92
2018-10-19T14:12:12.816Z,54.15
2018-10-19T14:14:41.347Z,54.83
2018-10-19T14:17:10.122Z,55.43
2018-10-19T14:19:38.752Z,54.97
2018-10-19T14:22:07.356Z,55.12
2018-10-19T14:24:36.007Z,54.95
2018-10-19T14:27:04.982Z,53.73
2018-10-19T14:29:33.653Z,53.63
2018-10-19T14:32:02.449Z,54.01
2018-10-19T14:34:31.080Z,54.93
2018-10-19T14:36:59.756Z,55.59
2018-10-19T14:39:28.536Z,54.97
2018-10-19T14:41:57.252Z,55.61
2018-10-19T14:44:25.970Z,55.51
2018-10-19T14:46:54.574Z,54.98
2018-10-19T14:49:23.382Z,54.93
2018-10-19T14:51:52.084Z,55.31
2018-10-19T14:54:20.830Z,55.49
2018-10-19T14:56:49.525Z,56.09
2018-10-19T14:59:18.450Z,56.28
2018-10-19T15:01:47.126Z,55.94
2018-10-19T15:04:15.905Z,56.22
2018-10-19T15:06:44.718Z,55.75
2018-10-19T15:09:13.509Z,55.67
2018-10-19T15:11:42.705Z,55.98
2018-10-19T15:14:11.692Z,55.93
2018-10-19T15:16:40.719Z,56.42
2018-10-19T15:19:09.485Z,56.52
2018-10-19T15:21:38.121Z,57.12
2018-10-19T15:24:06.906Z,57.31
2018-10-19T15:26:35.504Z,56.89
2018-10-19T15:29:04.404Z,56.95
2018-10-19T15:31:33.918Z,57.29
2018-10-19T15:34:04.235Z,57.39
2018-10-19T15:36:33.545Z,57.54
2018-10-19T15:39:02.798Z,57.11
2018-10-19T15:41:31.515Z,57.47
2018-10-19T15:44:00.250Z,57.23
2018-10-19T15:46:28.956Z,57.49
2018-10-19T15:48:57.648Z,57.15
2018-10-19T15:51:26.337Z,57.79
2018-10-19T15:53:55.062Z,57.98
2018-10-19T15:56:23.712Z,58.48
2018-10-19T15:58:52.396Z,58.65
2018-10-19T16:01:21.008Z,58.66
2018-10-19T16:03:49.893Z,58.56
2018-10-19T16:06:18.660Z,58.92
2018-10-19T16:08:47.443Z,58.81
2018-10-19T16:11:16.173Z,58.97
2018-10-19T16:13:45.060Z,59.31
2018-10-19T16:16:13.843Z,59.34
2018-10-19T16:18:42.451Z,59.73
2018-10-19T16:21:11.455Z,59.39
2018-10-19T16:23:40.160Z,59.67
2018-10-19T16:26:08.814Z,59.87
2018-10-19T16:28:37.452Z,59.97
2018-10-19T16:31:06.126Z,60.10
2018-10-19T16:33:34.823Z,60.67
2018-10-19T16:36:05.991Z,60.49
2018-10-19T16:38:34.697Z,60.69
2018-10-19T16:41:03.930Z,60.67
2018-10-19T16:43:32.589Z,60.89
2018-10-19T16:46:02.654Z,61.04
2018-10-19T16:48:31.326Z,61.32
2018-10-19T16:50:59.926Z,61.81
2018-10-19T16:53:29.524Z,61.41
2018-10-19T16:55:58.175Z,61.84
2018-10-19T16:58:27.310Z,61.58
2018-10-19T17:00:55.992Z,62.12
2018-10-19T17:03:24.716Z,61.79
2018-10-19T17:05:53.477Z,61.59
2018-10-19T17:08:22.726Z,61.78
2018-10-19T17:10:51.440Z,62.02
2018-10-19T17:13:20.388Z,62.05
2018-10-19T17:15:49.989Z,62.01
2018-10-19T17:18:19.151Z,62.10
2018-10-19T17:20:48.516Z,62.45
2018-10-19T17:23:17.303Z,62.55
2018-10-19T17:25:46.812Z,62.60
2018-10-19T17:28:15.594Z,62.77
2018-10-19T17:30:44.152Z,62.83
2018-10-19T17:33:13.013Z,63.72
2018-10-19T17:35:42.579Z,63.85
2018-10-19T17:38:11.370Z,63.85
2018-10-19T17:40:40.070Z,64.54
2018-10-19T17:43:09.245Z,64.30
2018-10-19T17:45:38.811Z,64.66
2018-10-19T17:48:14.309Z,64.95
2018-10-19T17:50:42.920Z,65.41
2018-10-19T17:53:11.583Z,65.50
2018-10-19T17:55:40.314Z,65.45
2018-10-19T17:58:09.086Z,65.67
2018-10-19T18:00:37.928Z,65.58
2018-10-19T18:03:06.701Z,66.08
2018-10-19T18:05:35.977Z,66.12
2018-10-19T18:08:04.755Z,66.38
2018-10-19T18:10:33.678Z,65.78
2018-10-19T18:13:03.078Z,66.32
2018-10-19T18:15:32.259Z,66.36
2018-10-19T18:18:01.039Z,66.67
2018-10-19T18:20:30.309Z,66.77
2018-10-19T18:22:59.353Z,66.32
2018-10-19T18:25:28.100Z,66.82
2018-10-19T18:27:57.026Z,67.05
2018-10-19T18:30:26.203Z,66.53
2018-10-19T18:32:54.965Z,66.90
2018-10-19T18:35:23.701Z,66.53
2018-10-19T18:37:53.423Z,66.92
2018-10-19T18:40:22.108Z,67.09
2018-10-19T18:42:50.821Z,66.97
2018-10-19T18:45:19.724Z,67.00
2018-10-19T18:47:48.661Z,66.85
2018-10-19T18:50:18.466Z,66.98
2018-10-19T18:52:47.195Z,67.03
2018-10-19T18:55:15.987Z,66.93
2018-10-19T18:57:44.701Z,67.04
2018-10-19T19:00:13.828Z,67.15
2018-10-19T19:02:42.583Z,67.06
2018-10-19T19:05:11.547Z,67.39
2018-10-19T19:07:40.422Z,67.04
2018-10-19T19:10:13.516Z,66.73
2018-10-19T19:12:43.079Z,66.96
2018-10-19T19:15:12.356Z,66.68
2018-10-19T19:17:41.337Z,66.86
2018-10-19T19:20:15.768Z,66.92
2018-10-19T19:22:44.861Z,66.70
2018-10-19T19:25:20.993Z,66.67
2018-10-19T19:27:49.788Z,66.64
2018-10-19T19:30:18.527Z,66.75
2018-10-19T19:32:52.441Z,66.02
2018-10-19T19:35:21.152Z,66.66
2018-10-19T19:37:49.865Z,66.83
2018-10-19T19:40:18.962Z,66.45
2018-10-19T19:42:56.000Z,66.36
2018-10-19T19:45:24.780Z,66.30
2018-10-19T19:47:58.776Z,66.55
2018-10-19T19:50:27.415Z,66.32
2018-10-19T19:52:56.167Z,65.63
2018-10-19T19:55:25.601Z,66.08
2018-10-19T19:57:54.372Z,66.26
2018-10-19T20:00:23.731Z,66.47
2018-10-19T20:02:52.811Z,65.90
2018-10-19T20:05:21.698Z,65.87
2018-10-19T20:07:50.452Z,66.00
2018-10-19T20:10:19.092Z,65.78
2018-10-19T20:12:47.837Z,66.26
2018-10-19T20:15:16.525Z,66.05
2018-10-19T20:17:45.475Z,66.13
2018-10-19T20:20:14.100Z,65.87
2018-10-19T20:22:43.291Z,66.38
2018-10-19T20:25:13.417Z,66.33
2018-10-19T20:27:42.253Z,66.39
2018-10-19T20:30:12.798Z,66.37
2018-10-19T20:32:41.613Z,66.79
2018-10-19T20:35:11.610Z,67.36
2018-10-19T20:37:40.313Z,67.46
2018-10-19T20:40:09.115Z,67.68
2018-10-19T20:42:37.793Z,67.71
2018-10-19T20:45:07.354Z,68.14
2018-10-19T20:47:35.972Z,68.36
2018-10-19T20:50:04.635Z,68.48
2018-10-19T20:52:33.250Z,68.72
2018-10-19T20:55:01.920Z,69.09
2018-10-19T20:57:30.635Z,68.80
2018-10-19T20:59:59.532Z,68.64
2018-10-19T21:02:28.311Z,68.93
2018-10-19T21:04:57.072Z,69.31
2018-10-19T21:07:25.951Z,68.98
2018-10-19T21:09:54.791Z,69.10
2018-10-19T21:12:23.628Z,68.77
2018-10-19T21:14:52.321Z,69.26
2018-10-19T21:17:21.215Z,69.59
2018-10-19T21:19:49.895Z,69.39
2018-10-19T21:22:18.459Z,69.60
2018-10-19T21:24:48.023Z,69.67
2018-10-19T21:27:16.670Z,69.66
2018-10-19T21:29:46.379Z,69.82
2018-10-19T21:32:15.383Z,69.94
2018-10-19T21:34:44.095Z,70.10
2018-10-19T21:37:12.780Z,69.95
2018-10-19T21:39:41.418Z,70.40
2018-10-19T21:42:10.078Z,70.32
2018-10-19T21:44:38.754Z,70.12
2018-10-19T21:47:07.594Z,70.33
2018-10-19T21:49:36.294Z,70.53
2018-10-19T21:52:05.105Z,70.77
2018-10-19T21:54:33.823Z,70.88
2018-10-19T21:57:03.462Z,70.68
2018-10-19T21:59:32.214Z,70.64
2018-10-19T22:02:03.057Z,70.44
2018-10-19T22:04:31.843Z,70.54
2018-10-19T22:07:00.525Z,70.19
2018-10-19T22:09:29.650Z,70.35
2018-10-19T22:11:58.682Z,70.39
2018-10-19T22:14:27.841Z,70.37
2018-10-19T22:16:56.851Z,70.37
2018-10-19T22:19:25.602Z,70.30
2018-10-19T22:21:54.264Z,70.65
2018-10-19T22:24:23.189Z,70.71
2018-10-19T22:26:52.007Z,71.17
2018-10-19T22:29:20.789Z,70.87
2018-10-19T22:31:49.581Z,70.94
2018-10-19T22:34:18.509Z,71.09
2018-10-19T22:36:47.253Z,70.85
2018-10-19T22:39:16.567Z,70.93
2018-10-19T22:41:45.262Z,70.86
2018-10-19T22:44:14.013Z,70.87
2018-10-19T22:46:43.690Z,70.76
2018-10-19T22:49:12.587Z,70.70
2018-10-19T22:51:41.442Z,70.90
2018-10-19T22:54:10.306Z,70.90
2018-10-19T22:56:39.055Z,70.62
2018-10-19T22:59:07.771Z,70.78
2018-10-19T23:01:36.482Z,70.73
2018-10-19T23:04:05.669Z,70.60
2018-10-19T23:06:34.453Z,70.37
2018-10-19T23:09:03.471Z,70.24
2018-10-19T23:11:33.277Z,70.64
2018-10-19T23:14:02.059Z,70.24
2018-10-19T23:16:32.024Z,70.29
2018-10-19T23:19:01.091Z,70.55
2018-10-19T23:21:29.784Z,70.50
2018-10-19T23:23:58.761Z,70.44
2018-10-19T23:26:27.371Z,70.05
2018-10-19T23:28:56.075Z,70.32
2018-10-19T23:31:25.116Z,70.10
2018-10-19T23:33:53.722Z,70.27
2018-10-19T23:36:22.393Z,69.99
2018-10-19T23:38:51.068Z,70.12
2018-10-19T23:41:19.765Z,70.24
2018-10-19T23:43:48.412Z,69.31
2018-10-19T23:46:16.963Z,69.75
2018-10-19T23:48:45.647Z,70.04
2018-10-19T23:51:14.392Z,70.41
2018-10-19T23:53:43.053Z,70.21
2018-10-19T23:56:11.680Z,70.37
2018-10-19T23:58:40.345Z,70.31
